Time,TemperatureF,DewpointF,PressureIn,WindDirection,WindDirectionDegrees,WindSpeedMPH,WindSpeedGustMPH,Humidity,HourlyPrecipIn,Conditions,Clouds,dailyrainin,SoftwareType,DateUTC
2013-04-21 00:03:00,46.9,-9.0,30.33,NNE,28,2.0,3.0,9,0.00,,BKN029,0.00,VWS V13.01,2013-04-21 07:03:00,
2013-04-21 00:08:00,46.9,1.7,30.33,North,360,0.0,3.0,15,0.00,,BKN029,0.00,VWS V13.01,2013-04-21 07:08:00,
2013-04-21 00:13:00,46.9,10.1,30.33,NE,42,1.0,4.0,22,0.00,,BKN029,0.00,VWS V13.01,2013-04-21 07:13:00,
2013-04-21 00:18:00,46.9,15.5,30.33,ENE,57,2.0,3.0,28,0.00,,BKN029,0.00,VWS V13.01,2013-04-21 07:18:00,
2013-04-21 00:23:00,47.0,4.5,30.33,ENE,57,0.0,3.0,17,0.00,,BKN029,0.00,VWS V13.01,2013-04-21 07:23:00,
2013-04-21 00:28:00,47.0,8.0,30.33,ENE,57,0.0,3.0,20,0.00,,BKN029,0.00,VWS V13.01,2013-04-21 07:28:00,
2013-04-21 00:33:00,47.0,-11.3,30.33,ENE,70,0.0,2.0,8,0.00,,BKN029,0.00,VWS V13.01,2013-04-21 07:33:00,
2013-04-21 00:39:00,46.8,16.2,30.33,ENE,59,0.0,3.0,29,0.00,,BKN029,0.00,VWS V13.01,2013-04-21 07:39:00,
2013-04-21 00:44:00,46.9,10.1,30.33,ENE,59,0.0,3.0,22,0.00,,BKN029,0.00,VWS V13.01,2013-04-21 07:44:00,
2013-04-21 00:49:00,46.9,0.2,30.33,SE,130,0.0,3.0,14,0.00,,BKN029,0.00,VWS V13.01,2013-04-21 07:49:00,
2013-04-21 00:54:00,46.7,12.8,30.33,SE,128,0.0,3.0,25,0.00,,OVC029,0.00,VWS V13.01,2013-04-21 07:54:00,
2013-04-21 00:59:00,46.7,13.6,30.33,SE,128,0.0,0.0,26,0.00,,OVC029,0.00,VWS V13.01,2013-04-21 07:59:00,
2013-04-21 01:04:00,46.8,-4.9,30.33,SE,128,0.0,0.0,11,0.00,,OVC029,0.00,VWS V13.01,2013-04-21 08:04:00,
2013-04-21 01:09:00,46.7,-20.7,30.33,SE,128,0.0,0.0,5,0.00,,OVC029,0.00,VWS V13.01,2013-04-21 08:09:00,
2013-04-21 01:14:00,46.6,0.0,30.33,SE,128,0.0,0.0,0,0.00,,OVC029,0.00,VWS V13.01,2013-04-21 08:14:00,
2013-04-21 01:19:00,46.5,0.0,30.33,SE,128,0.0,0.0,0,0.00,,OVC029,0.00,VWS V13.01,2013-04-21 08:19:00,
2013-04-21 01:24:00,46.5,0.0,30.32,SE,128,0.0,0.0,0,0.00,,OVC029,0.00,VWS V13.01,2013-04-21 08:24:00,
2013-04-21 01:29:00,46.4,0.0,30.33,SE,128,0.0,0.0,0,0.00,,OVC029,0.00,VWS V13.01,2013-04-21 08:29:00,
2013-04-21 01:35:00,46.3,0.0,30.33,SE,128,0.0,0.0,0,0.00,,OVC029,0.00,VWS V13.01,2013-04-21 08:35:00,
2013-04-21 01:40:00,46.2,0.0,30.33,SE,128,0.0,0.0,0,0.00,,OVC029,0.00,VWS V13.01,2013-04-21 08:40:00,
2013-04-21 01:45:00,46.2,0.0,30.33,SE,128,0.0,0.0,0,0.00,,OVC029,0.00,VWS V13.01,2013-04-21 08:45:00,
2013-04-21 01:50:00,46.1,0.0,30.34,SE,128,0.0,0.0,0,0.00,,OVC027,0.00,VWS V13.01,2013-04-21 08:50:00,
2013-04-21 01:55:00,46.1,0.0,30.33,SE,128,0.0,0.0,0,0.00,,OVC027,0.00,VWS V13.01,2013-04-21 08:55:00,
2013-04-21 02:00:00,46.1,0.0,30.33,ESE,103,0.0,0.0,0,0.00,,OVC027,0.00,VWS V13.01,2013-04-21 09:00:00,
2013-04-21 02:05:00,46.1,0.0,30.33,ESE,103,0.0,0.0,0,0.00,,OVC027,0.00,VWS V13.01,2013-04-21 09:05:00,
2013-04-21 02:10:00,46.1,0.0,30.33,ESE,103,0.0,0.0,0,0.00,,OVC027,0.00,VWS V13.01,2013-04-21 09:10:00,
2013-04-21 02:15:00,46.1,0.0,30.33,ESE,103,0.0,0.0,0,0.00,,OVC027,0.00,VWS V13.01,2013-04-21 09:15:00,
2013-04-21 02:20:00,46.1,0.0,30.33,ESE,103,0.0,0.0,0,0.00,,OVC027,0.00,VWS V13.01,2013-04-21 09:20:00,
2013-04-21 02:25:00,46.1,0.0,30.33,ESE,103,0.0,0.0,0,0.00,,OVC027,0.00,VWS V13.01,2013-04-21 09:25:00,
2013-04-21 02:30:00,46.1,0.0,30.33,ESE,103,0.0,0.0,0,0.00,,OVC027,0.00,VWS V13.01,2013-04-21 09:30:00,
2013-04-21 02:36:00,46.1,0.0,30.33,ESE,103,0.0,0.0,0,0.00,,OVC027,0.00,VWS V13.01,2013-04-21 09:36:00,
2013-04-21 02:41:00,46.1,0.0,30.33,ESE,103,0.0,0.0,0,0.00,,OVC027,0.00,VWS V13.01,2013-04-21 09:41:00,
2013-04-21 02:46:00,46.0,0.0,30.33,ESE,103,0.0,0.0,0,0.00,,OVC027,0.00,VWS V13.01,2013-04-21 09:46:00,
2013-04-21 02:51:00,46.0,0.0,30.33,ESE,103,0.0,0.0,0,0.00,,OVC029,0.00,VWS V13.01,2013-04-21 09:51:00,
2013-04-21 02:56:00,46.0,0.0,30.33,ESE,103,0.0,0.0,0,0.00,,OVC029,0.00,VWS V13.01,2013-04-21 09:56:00,
2013-04-21 03:01:00,46.1,0.0,30.33,ESE,103,0.0,1.0,0,0.00,,OVC029,0.00,VWS V13.01,2013-04-21 10:01:00,
2013-04-21 03:06:00,46.0,0.0,30.33,ESE,103,0.0,1.0,0,0.00,,OVC029,0.00,VWS V13.01,2013-04-21 10:06:00,
2013-04-21 03:11:00,46.0,0.0,30.33,ESE,103,0.0,1.0,0,0.00,,OVC029,0.00,VWS V13.01,2013-04-21 10:11:00,
2013-04-21 03:16:00,46.0,0.0,30.33,ESE,103,0.0,0.0,0,0.00,,OVC029,0.00,VWS V13.01,2013-04-21 10:16:00,
2013-04-21 03:21:00,45.9,0.0,30.32,SSE,152,0.0,2.0,0,0.00,,OVC029,0.00,VWS V13.01,2013-04-21 10:21:00,
2013-04-21 03:26:00,45.9,0.0,30.32,SSE,151,0.0,2.0,0,0.00,,OVC029,0.00,VWS V13.01,2013-04-21 10:26:00,
2013-04-21 03:31:00,46.0,0.0,30.32,SSE,151,0.0,0.0,0,0.00,,OVC029,0.00,VWS V13.01,2013-04-21 10:31:00,
2013-04-21 03:37:00,46.0,0.0,30.32,SSE,151,0.0,0.0,0,0.00,,OVC029,0.00,VWS V13.01,2013-04-21 10:37:00,
2013-04-21 03:42:00,46.0,0.0,30.32,SSE,151,0.0,0.0,0,0.00,,OVC029,0.00,VWS V13.01,2013-04-21 10:42:00,
2013-04-21 03:47:00,46.0,0.0,30.31,SSE,151,0.0,0.0,0,0.00,,OVC029,0.00,VWS V13.01,2013-04-21 10:47:00,
2013-04-21 03:52:00,46.0,0.0,30.32,SSE,151,0.0,0.0,0,0.00,,OVC027,0.00,VWS V13.01,2013-04-21 10:52:00,
2013-04-21 03:57:00,46.0,0.0,30.31,SSE,151,0.0,0.0,0,0.00,,OVC027,0.00,VWS V13.01,2013-04-21 10:57:00,
2013-04-21 04:02:00,46.0,0.0,30.32,SSE,151,0.0,0.0,0,0.00,,OVC027,0.00,VWS V13.01,2013-04-21 11:02:00,
2013-04-21 04:07:00,46.0,0.0,30.32,SSE,151,0.0,0.0,0,0.00,,OVC027,0.00,VWS V13.01,2013-04-21 11:07:00,
2013-04-21 04:12:00,46.0,0.0,30.32,SSE,151,0.0,0.0,0,0.00,,OVC027,0.00,VWS V13.01,2013-04-21 11:12:00,
2013-04-21 04:17:00,45.9,0.0,30.32,SSE,151,0.0,0.0,0,0.00,,OVC027,0.00,VWS V13.01,2013-04-21 11:17:00,
2013-04-21 04:22:00,46.0,0.0,30.32,SSE,151,0.0,0.0,0,0.00,,OVC027,0.00,VWS V13.01,2013-04-21 11:22:00,
2013-04-21 04:27:00,45.9,0.0,30.31,SSE,151,0.0,0.0,0,0.00,,OVC027,0.00,VWS V13.01,2013-04-21 11:27:00,
2013-04-21 04:33:00,45.9,0.0,30.31,SSE,151,0.0,0.0,0,0.00,,OVC027,0.00,VWS V13.01,2013-04-21 11:33:00,
2013-04-21 04:38:00,45.9,0.0,30.31,SSE,151,0.0,0.0,0,0.00,,OVC027,0.00,VWS V13.01,2013-04-21 11:38:00,
2013-04-21 04:43:00,45.8,0.0,30.31,SSE,151,0.0,0.0,0,0.00,,OVC027,0.00,VWS V13.01,2013-04-21 11:43:00,
2013-04-21 04:48:00,45.8,0.0,30.31,SSE,151,0.0,0.0,0,0.00,,OVC027,0.00,VWS V13.01,2013-04-21 11:48:00,
2013-04-21 04:53:00,45.8,0.0,30.32,SSE,151,0.0,0.0,0,0.00,,OVC014,0.00,VWS V13.01,2013-04-21 11:53:00,
2013-04-21 04:58:00,45.8,0.0,30.33,SSE,151,0.0,0.0,0,0.00,,OVC014,0.00,VWS V13.01,2013-04-21 11:58:00,
2013-04-21 05:03:00,45.9,0.0,30.33,SSE,151,0.0,0.0,0,0.00,,OVC014,0.00,VWS V13.01,2013-04-21 12:03:00,
2013-04-21 05:08:00,45.9,0.0,30.33,SSE,151,0.0,0.0,0,0.00,,OVC014,0.00,VWS V13.01,2013-04-21 12:08:00,
2013-04-21 05:13:00,45.8,0.0,30.32,SSE,151,0.0,0.0,0,0.00,,OVC014,0.00,VWS V13.01,2013-04-21 12:13:00,
2013-04-21 05:18:00,45.8,0.0,30.32,SSE,151,0.0,0.0,0,0.00,,OVC014,0.00,VWS V13.01,2013-04-21 12:18:00,
2013-04-21 05:23:00,45.8,0.0,30.33,SSE,151,0.0,0.0,0,0.00,,OVC014,0.00,VWS V13.01,2013-04-21 12:23:00,
2013-04-21 05:29:00,45.7,0.0,30.33,SSE,151,0.0,0.0,0,0.00,,OVC014,0.00,VWS V13.01,2013-04-21 12:29:00,
2013-04-21 05:34:00,45.7,0.0,30.33,SSE,151,0.0,0.0,0,0.00,,OVC014,0.00,VWS V13.01,2013-04-21 12:34:00,
2013-04-21 05:39:00,45.7,0.0,30.33,SSE,151,0.0,0.0,0,0.00,,OVC014,0.00,VWS V13.01,2013-04-21 12:39:00,
2013-04-21 05:44:00,45.7,0.0,30.32,SSE,151,0.0,0.0,0,0.00,,OVC014,0.00,VWS V13.01,2013-04-21 12:44:00,
2013-04-21 05:49:00,45.8,0.0,30.32,SSE,151,0.0,0.0,0,0.00,,OVC014,0.00,VWS V13.01,2013-04-21 12:49:00,
2013-04-21 05:54:00,45.7,0.0,30.32,SSE,151,0.0,0.0,0,0.00,,OVC014,0.00,VWS V13.01,2013-04-21 12:54:00,
2013-04-21 05:59:00,45.6,0.0,30.32,SSE,151,0.0,0.0,0,0.00,,OVC014,0.00,VWS V13.01,2013-04-21 12:59:00,
2013-04-21 06:04:00,45.6,0.0,30.32,SSE,151,0.0,0.0,0,0.00,,OVC014,0.00,VWS V13.01,2013-04-21 13:04:00,
2013-04-21 06:09:00,45.5,0.0,30.32,SSE,151,0.0,0.0,0,0.00,,OVC014,0.00,VWS V13.01,2013-04-21 13:09:00,
2013-04-21 06:14:00,45.5,0.0,30.32,SSE,151,0.0,0.0,0,0.00,,OVC014,0.00,VWS V13.01,2013-04-21 13:14:00,
2013-04-21 06:19:00,45.6,0.0,30.32,SSE,151,0.0,0.0,0,0.00,,OVC014,0.00,VWS V13.01,2013-04-21 13:19:00,
2013-04-21 06:25:00,45.6,0.0,30.32,SSE,151,0.0,0.0,0,0.00,,OVC014,0.00,VWS V13.01,2013-04-21 13:25:00,
2013-04-21 06:30:00,45.6,0.0,30.32,SSE,165,0.0,0.0,0,0.00,,OVC014,0.00,VWS V13.01,2013-04-21 13:30:00,
2013-04-21 06:35:00,45.6,0.0,30.32,SSE,165,0.0,0.0,0,0.00,,OVC014,0.00,VWS V13.01,2013-04-21 13:35:00,
2013-04-21 06:40:00,45.6,0.0,30.32,SSE,164,0.0,0.0,0,0.00,,OVC014,0.00,VWS V13.01,2013-04-21 13:40:00,
2013-04-21 06:45:00,45.6,0.0,30.32,SSE,165,0.0,1.0,0,0.00,,OVC014,0.00,VWS V13.01,2013-04-21 13:45:00,
2013-04-21 06:50:00,45.6,0.0,30.32,SSE,165,0.0,1.0,0,0.00,,OVC014,0.00,VWS V13.01,2013-04-21 13:50:00,
2013-04-21 06:55:00,45.6,0.0,30.33,SSE,165,0.0,1.0,0,0.00,,OVC014,0.00,VWS V13.01,2013-04-21 13:55:00,
2013-04-21 07:00:00,45.6,0.0,30.33,SSE,165,0.0,0.0,0,0.00,,OVC014,0.00,VWS V13.01,2013-04-21 14:00:00,
2013-04-21 07:05:00,45.6,0.0,30.33,SSE,165,0.0,0.0,0,0.00,,OVC014,0.00,VWS V13.01,2013-04-21 14:05:00,
2013-04-21 07:10:00,45.7,0.0,30.33,SSE,165,0.0,0.0,0,0.00,,OVC014,0.00,VWS V13.01,2013-04-21 14:10:00,
2013-04-21 07:15:00,45.8,0.0,30.33,SSE,165,0.0,0.0,0,0.00,,OVC014,0.00,VWS V13.01,2013-04-21 14:15:00,
2013-04-21 07:20:00,45.8,0.0,30.33,SSE,165,0.0,0.0,0,0.00,,OVC014,0.00,VWS V13.01,2013-04-21 14:20:00,
2013-04-21 07:26:00,45.8,0.0,30.32,SSE,165,0.0,0.0,0,0.00,,OVC014,0.00,VWS V13.01,2013-04-21 14:26:00,
2013-04-21 07:31:00,45.9,0.0,30.33,SSE,165,0.0,0.0,0,0.00,,OVC014,0.00,VWS V13.01,2013-04-21 14:31:00,
2013-04-21 07:36:00,45.9,0.0,30.33,SSE,165,0.0,0.0,0,0.00,,OVC014,0.00,VWS V13.01,2013-04-21 14:36:00,
2013-04-21 07:41:00,45.9,-3.8,30.33,SSE,165,0.0,0.0,12,0.00,,OVC014,0.00,VWS V13.01,2013-04-21 14:41:00,
2013-04-21 07:46:00,46.0,-5.6,30.33,SSE,165,0.0,0.0,11,0.00,,OVC014,0.00,VWS V13.01,2013-04-21 14:46:00,
2013-04-21 07:51:00,46.1,11.3,30.33,SSE,165,0.0,0.0,24,0.00,,OVC012,0.00,VWS V13.01,2013-04-21 14:51:00,
2013-04-21 07:56:00,46.2,16.5,30.32,SSE,165,0.0,1.0,30,0.00,,OVC012,0.00,VWS V13.01,2013-04-21 14:56:00,
2013-04-21 08:01:00,46.3,17.3,30.32,SSE,165,0.0,0.0,31,0.00,,OVC012,0.00,VWS V13.01,2013-04-21 15:01:00,
2013-04-21 08:06:00,46.5,16.0,30.32,SSE,165,0.0,0.0,29,0.00,,OVC012,0.00,VWS V13.01,2013-04-21 15:06:00,
2013-04-21 08:11:00,46.7,19.8,30.33,SSE,165,0.0,0.0,34,0.00,,OVC012,0.00,VWS V13.01,2013-04-21 15:11:00,
2013-04-21 08:17:00,46.7,26.5,30.32,SSE,165,1.0,2.0,45,0.00,,OVC012,0.00,VWS V13.01,2013-04-21 15:17:00,
2013-04-21 08:22:00,46.8,30.1,30.32,SSE,165,0.0,2.0,52,0.00,,OVC012,0.00,VWS V13.01,2013-04-21 15:22:00,
2013-04-21 08:27:00,46.9,32.0,30.33,SSE,165,0.0,2.0,56,0.00,,OVC012,0.00,VWS V13.01,2013-04-21 15:27:00,
2013-04-21 08:32:00,47.1,31.3,30.33,SSE,165,0.0,0.0,54,0.00,,OVC012,0.00,VWS V13.01,2013-04-21 15:32:00,
2013-04-21 08:37:00,47.2,32.8,30.33,SSE,165,0.0,1.0,57,0.00,,OVC012,0.00,VWS V13.01,2013-04-21 15:37:00,
2013-04-21 08:42:00,47.3,32.4,30.32,SSE,165,0.0,1.0,56,0.00,,OVC012,0.00,VWS V13.01,2013-04-21 15:42:00,
2013-04-21 08:47:00,47.5,33.0,30.32,SSE,165,0.0,0.0,57,0.00,,OVC012,0.00,VWS V13.01,2013-04-21 15:47:00,
2013-04-21 08:52:00,47.8,32.4,30.32,SSE,165,1.0,1.0,55,0.00,,OVC012,0.00,VWS V13.01,2013-04-21 15:52:00,
2013-04-21 08:57:00,47.8,34.6,30.32,SSE,165,0.0,3.0,60,0.00,,OVC012,0.00,VWS V13.01,2013-04-21 15:57:00,
2013-04-21 09:02:00,47.8,33.8,30.32,SSE,165,0.0,0.0,58,0.00,,OVC012,0.00,VWS V13.01,2013-04-21 16:02:00,
2013-04-21 09:07:00,47.8,34.6,30.32,SSE,151,0.0,2.0,60,0.00,,OVC012,0.00,VWS V13.01,2013-04-21 16:07:00,
2013-04-21 09:13:00,47.8,34.2,30.32,SSE,151,0.0,2.0,59,0.00,,OVC012,0.00,VWS V13.01,2013-04-21 16:13:00,
2013-04-21 09:18:00,48.0,33.9,30.33,SSE,151,0.0,1.0,58,0.00,,OVC012,0.00,VWS V13.01,2013-04-21 16:18:00,
2013-04-21 09:23:00,48.2,34.1,30.33,SSE,151,0.0,1.0,58,0.00,,OVC012,0.00,VWS V13.01,2013-04-21 16:23:00,
2013-04-21 09:28:00,48.3,35.5,30.32,East,91,1.0,2.0,61,0.00,,OVC012,0.00,VWS V13.01,2013-04-21 16:28:00,
2013-04-21 09:33:00,48.5,34.4,30.32,ENE,61,0.0,2.0,58,0.00,,OVC012,0.00,VWS V13.01,2013-04-21 16:33:00,
2013-04-21 09:38:00,48.6,35.8,30.32,NNE,19,0.0,2.0,61,0.00,,OVC012,0.00,VWS V13.01,2013-04-21 16:38:00,
2013-04-21 09:43:00,48.7,36.3,30.32,NNE,19,0.0,2.0,62,0.00,,OVC012,0.00,VWS V13.01,2013-04-21 16:43:00,
2013-04-21 09:48:00,49.1,36.2,30.32,NNE,20,1.0,2.0,61,0.00,,OVC012,0.00,VWS V13.01,2013-04-21 16:48:00,
2013-04-21 09:53:00,49.2,36.8,30.32,SSW,212,2.0,3.0,62,0.00,,OVC010,0.00,VWS V13.01,2013-04-21 16:53:00,
2013-04-21 09:58:00,49.2,37.6,30.32,South,184,1.0,3.0,64,0.00,,OVC010,0.00,VWS V13.01,2013-04-21 16:58:00,
2013-04-21 10:03:00,49.4,36.9,30.32,South,184,0.0,2.0,62,0.00,,OVC010,0.00,VWS V13.01,2013-04-21 17:03:00,
2013-04-21 10:09:00,49.7,38.8,30.31,SE,145,3.0,4.0,66,0.00,,OVC010,0.00,VWS V13.01,2013-04-21 17:09:00,
2013-04-21 10:14:00,49.8,38.1,30.31,SSW,202,0.0,5.0,64,0.00,,OVC010,0.00,VWS V13.01,2013-04-21 17:14:00,
2013-04-21 10:19:00,50.0,39.5,30.32,SSW,207,0.0,3.0,67,0.00,,OVC010,0.00,VWS V13.01,2013-04-21 17:19:00,
2013-04-21 10:24:00,50.1,39.2,30.32,South,188,0.0,4.0,66,0.00,,OVC010,0.00,VWS V13.01,2013-04-21 17:24:00,
2013-04-21 10:29:00,50.4,39.1,30.31,SSW,196,2.0,2.0,65,0.00,,OVC010,0.00,VWS V13.01,2013-04-21 17:29:00,
2013-04-21 10:34:00,50.8,39.5,30.31,SSE,168,3.0,4.0,65,0.00,,OVC010,0.00,VWS V13.01,2013-04-21 17:34:00,
2013-04-21 10:39:00,50.7,40.5,30.32,SW,227,0.0,7.0,68,0.00,,OVC010,0.00,VWS V13.01,2013-04-21 17:39:00,
2013-04-21 10:44:00,50.8,40.6,30.32,WSW,254,0.0,0.0,68,0.00,,OVC010,0.00,VWS V13.01,2013-04-21 17:44:00,
2013-04-21 10:49:00,50.9,41.5,30.32,South,184,0.0,5.0,70,0.00,,OVC024,0.00,VWS V13.01,2013-04-21 17:49:00,
2013-04-21 10:54:00,51.3,41.1,30.32,SW,232,0.0,5.0,68,0.00,,OVC024,0.00,VWS V13.01,2013-04-21 17:54:00,
2013-04-21 10:59:00,52.1,40.7,30.31,SSE,168,1.0,3.0,65,0.00,,OVC024,0.00,VWS V13.01,2013-04-21 17:59:00,
2013-04-21 11:05:00,52.0,42.5,30.31,SSW,196,4.0,8.0,70,0.00,,OVC024,0.00,VWS V13.01,2013-04-21 18:05:00,
2013-04-21 11:10:00,52.3,42.5,30.31,South,189,0.0,8.0,69,0.00,,OVC024,0.00,VWS V13.01,2013-04-21 18:10:00,
2013-04-21 11:15:00,53.0,43.1,30.31,NNE,24,0.0,0.0,69,0.00,,OVC024,0.00,VWS V13.01,2013-04-21 18:15:00,
2013-04-21 11:20:00,53.6,44.1,30.31,SSW,198,1.0,7.0,70,0.00,,OVC024,0.00,VWS V13.01,2013-04-21 18:20:00,
2013-04-21 11:25:00,54.3,44.7,30.31,South,174,3.0,7.0,70,0.00,,OVC024,0.00,VWS V13.01,2013-04-21 18:25:00,
2013-04-21 11:30:00,54.6,45.0,30.31,SSW,195,2.0,6.0,70,0.00,,OVC024,0.00,VWS V13.01,2013-04-21 18:30:00,
2013-04-21 11:35:00,54.5,44.9,30.31,WNW,293,3.0,6.0,70,0.00,,OVC024,0.00,VWS V13.01,2013-04-21 18:35:00,
2013-04-21 11:40:00,54.6,45.0,30.30,ENE,71,2.0,6.0,70,0.00,,OVC024,0.00,VWS V13.01,2013-04-21 18:40:00,
2013-04-21 11:45:00,54.7,45.1,30.30,South,190,4.0,4.0,70,0.00,,OVC024,0.00,VWS V13.01,2013-04-21 18:45:00,
2013-04-21 11:50:00,54.7,45.1,30.30,SSE,167,0.0,4.0,70,0.00,,OVC080,0.00,VWS V13.01,2013-04-21 18:50:00,
2013-04-21 11:55:00,54.6,45.0,30.30,South,174,0.0,8.0,70,0.00,,OVC080,0.00,VWS V13.01,2013-04-21 18:55:00,
2013-04-21 12:01:00,54.6,45.0,30.30,South,184,3.0,4.0,70,0.00,,OVC080,0.00,VWS V13.01,2013-04-21 19:01:00,
2013-04-21 12:06:00,54.8,45.2,30.30,SSW,213,0.0,4.0,70,0.00,,OVC080,0.00,VWS V13.01,2013-04-21 19:06:00,
2013-04-21 12:11:00,55.1,45.1,30.30,South,180,5.0,6.0,69,0.00,,OVC080,0.00,VWS V13.01,2013-04-21 19:11:00,
2013-04-21 12:16:00,55.2,45.6,30.30,SW,234,2.0,4.0,70,0.00,,OVC080,0.00,VWS V13.01,2013-04-21 19:16:00,
2013-04-21 12:21:00,55.9,46.3,30.30,SW,232,4.0,6.0,70,0.00,,OVC080,0.00,VWS V13.01,2013-04-21 19:21:00,
2013-04-21 12:26:00,56.4,46.8,30.29,SSE,158,0.0,9.0,70,0.00,,OVC080,0.00,VWS V13.01,2013-04-21 19:26:00,
2013-04-21 12:31:00,57.1,46.7,30.29,SSW,212,7.0,7.0,68,0.00,,OVC080,0.00,VWS V13.01,2013-04-21 19:31:00,
2013-04-21 12:36:00,57.1,47.0,30.29,SW,231,2.0,9.0,69,0.00,,OVC080,0.00,VWS V13.01,2013-04-21 19:36:00,
2013-04-21 12:41:00,57.6,47.5,30.29,South,184,5.0,9.0,69,0.00,,OVC080,0.00,VWS V13.01,2013-04-21 19:41:00,
2013-04-21 12:47:00,57.3,47.2,30.28,South,184,5.0,9.0,69,0.00,,OVC080,0.00,VWS V13.01,2013-04-21 19:47:00,
2013-04-21 12:52:00,57.1,46.7,30.28,SW,233,5.0,9.0,68,0.00,,BKN080,0.00,VWS V13.01,2013-04-21 19:52:00,
2013-04-21 12:57:00,57.2,47.1,30.28,SSW,198,3.0,9.0,69,0.00,,BKN080,0.00,VWS V13.01,2013-04-21 19:57:00,
2013-04-21 13:02:00,57.2,47.1,30.28,SW,215,2.0,4.0,69,0.00,,BKN080,0.00,VWS V13.01,2013-04-21 20:02:00,
2013-04-21 13:07:00,57.5,47.4,30.28,South,191,1.0,4.0,69,0.00,,BKN080,0.00,VWS V13.01,2013-04-21 20:07:00,
2013-04-21 13:12:00,57.8,47.7,30.27,West,262,0.0,4.0,69,0.00,,BKN080,0.00,VWS V13.01,2013-04-21 20:12:00,
2013-04-21 13:17:00,58.1,48.0,30.27,SSW,193,5.0,6.0,69,0.00,,BKN080,0.00,VWS V13.01,2013-04-21 20:17:00,
2013-04-21 13:22:00,58.0,47.9,30.27,ESE,119,2.0,6.0,69,0.00,,BKN080,0.00,VWS V13.01,2013-04-21 20:22:00,
2013-04-21 13:27:00,58.2,48.1,30.27,SSE,167,3.0,6.0,69,0.00,,BKN080,0.00,VWS V13.01,2013-04-21 20:27:00,
2013-04-21 13:32:00,58.1,48.0,30.27,ESE,110,2.0,5.0,69,0.00,,BKN080,0.00,VWS V13.01,2013-04-21 20:32:00,
2013-04-21 13:37:00,57.9,47.8,30.27,SSE,162,1.0,5.0,69,0.00,,BKN080,0.00,VWS V13.01,2013-04-21 20:37:00,
2013-04-21 13:43:00,57.8,47.7,30.27,SSE,160,2.0,5.0,69,0.00,,BKN080,0.00,VWS V13.01,2013-04-21 20:43:00,
2013-04-21 13:48:00,58.1,48.0,30.27,SE,140,2.0,4.0,69,0.00,,BKN080,0.00,VWS V13.01,2013-04-21 20:48:00,
2013-04-21 13:53:00,58.3,48.2,30.27,SE,145,2.0,4.0,69,0.00,,BKN080,0.00,VWS V13.01,2013-04-21 20:53:00,
2013-04-21 13:58:00,58.0,47.9,30.27,SSW,195,5.0,7.0,69,0.00,,BKN080,0.00,VWS V13.01,2013-04-21 20:58:00,
2013-04-21 14:03:00,57.9,47.0,30.27,SE,142,3.0,7.0,67,0.00,,BKN080,0.00,VWS V13.01,2013-04-21 21:03:00,
2013-04-21 14:08:00,58.1,48.0,30.26,SSE,167,1.0,7.0,69,0.00,,BKN080,0.00,VWS V13.01,2013-04-21 21:08:00,
2013-04-21 14:13:00,58.5,48.0,30.27,SSW,208,1.0,7.0,68,0.00,,BKN080,0.00,VWS V13.01,2013-04-21 21:13:00,
2013-04-21 14:18:00,59.0,48.5,30.26,South,184,4.0,4.0,68,0.00,,BKN080,0.00,VWS V13.01,2013-04-21 21:18:00,
2013-04-21 14:23:00,59.1,48.6,30.26,South,184,4.0,7.0,68,0.00,,BKN080,0.00,VWS V13.01,2013-04-21 21:23:00,
2013-04-21 14:28:00,59.2,49.0,30.26,ENE,69,0.0,7.0,69,0.00,,BKN080,0.00,VWS V13.01,2013-04-21 21:28:00,
2013-04-21 14:33:00,59.5,48.9,30.26,SE,124,3.0,4.0,68,0.00,,BKN080,0.00,VWS V13.01,2013-04-21 21:33:00,
2013-04-21 14:39:00,59.6,49.0,30.26,SW,214,5.0,5.0,68,0.00,,BKN080,0.00,VWS V13.01,2013-04-21 21:39:00,
2013-04-21 14:44:00,59.2,49.0,30.26,SE,144,0.0,9.0,69,0.00,,BKN080,0.00,VWS V13.01,2013-04-21 21:44:00,
2013-04-21 14:49:00,59.0,48.9,30.26,SSE,156,0.0,2.0,69,0.00,,BKN080,0.00,VWS V13.01,2013-04-21 21:49:00,
2013-04-21 14:54:00,58.9,48.4,30.26,ESE,102,2.0,6.0,68,0.00,,OVC080,0.00,VWS V13.01,2013-04-21 21:54:00,
2013-04-21 14:59:00,58.9,48.8,30.26,SSE,160,1.0,1.0,69,0.00,,OVC080,0.00,VWS V13.01,2013-04-21 21:59:00,
2013-04-21 15:04:00,58.9,48.8,30.26,SSW,206,0.0,4.0,69,0.00,,OVC080,0.00,VWS V13.01,2013-04-21 22:04:00,
2013-04-21 15:09:00,59.1,49.0,30.26,ESE,115,3.0,4.0,69,0.00,,OVC080,0.00,VWS V13.01,2013-04-21 22:09:00,
2013-04-21 15:14:00,58.9,48.8,30.26,ENE,67,1.0,2.0,69,0.00,,OVC080,0.00,VWS V13.01,2013-04-21 22:14:00,
2013-04-21 15:19:00,58.6,48.1,30.27,ENE,67,3.0,7.0,68,0.00,,OVC080,0.00,VWS V13.01,2013-04-21 22:19:00,
2013-04-21 15:24:00,58.4,47.9,30.26,ENE,78,2.0,7.0,68,0.00,,OVC080,0.00,VWS V13.01,2013-04-21 22:24:00,
2013-04-21 15:29:00,58.3,47.8,30.27,SE,141,1.0,4.0,68,0.00,,OVC080,0.00,VWS V13.01,2013-04-21 22:29:00,
2013-04-21 15:35:00,58.0,47.5,30.27,SSE,149,5.0,7.0,68,0.00,,OVC080,0.00,VWS V13.01,2013-04-21 22:35:00,
2013-04-21 15:40:00,57.8,46.9,30.27,South,172,5.0,7.0,67,0.00,,OVC080,0.00,VWS V13.01,2013-04-21 22:40:00,
2013-04-21 15:45:00,57.6,45.9,30.26,SSW,199,1.0,2.0,65,0.00,,OVC080,0.00,VWS V13.01,2013-04-21 22:45:00,
2013-04-21 15:50:00,57.6,43.8,30.26,SSE,164,5.0,6.0,60,0.00,,OVC065,0.00,VWS V13.01,2013-04-21 22:50:00,
2013-04-21 15:55:00,57.2,42.6,30.27,SE,126,4.0,10.0,58,0.00,,OVC065,0.00,VWS V13.01,2013-04-21 22:55:00,
2013-04-21 16:00:00,57.0,40.1,30.27,SE,133,0.0,2.0,53,0.00,,OVC065,0.00,VWS V13.01,2013-04-21 23:00:00,
2013-04-21 16:05:00,56.8,36.3,30.27,SSE,166,0.0,2.0,46,0.00,,OVC065,0.00,VWS V13.01,2013-04-21 23:05:00,
2013-04-21 16:10:00,56.5,29.2,30.27,NE,40,3.0,3.0,35,0.00,,OVC065,0.00,VWS V13.01,2013-04-21 23:10:00,
2013-04-21 16:15:00,56.1,18.8,30.27,NE,38,0.0,0.0,23,0.00,,OVC065,0.00,VWS V13.01,2013-04-21 23:15:00,
2013-04-21 16:20:00,55.9,28.7,30.27,South,169,1.0,4.0,35,0.00,,OVC065,0.00,VWS V13.01,2013-04-21 23:20:00,
2013-04-21 16:25:00,55.8,11.7,30.27,SSE,168,2.0,4.0,17,0.00,,OVC065,0.00,VWS V13.01,2013-04-21 23:25:00,
2013-04-21 16:31:00,55.5,15.1,30.27,ESE,115,0.0,1.0,20,0.00,,OVC065,0.00,VWS V13.01,2013-04-21 23:31:00,
2013-04-21 16:36:00,55.3,25.2,30.27,ESE,123,0.0,3.0,31,0.00,,OVC065,0.00,VWS V13.01,2013-04-21 23:36:00,
2013-04-21 16:41:00,55.4,18.2,30.27,SE,142,0.0,3.0,23,0.00,,OVC065,0.00,VWS V13.01,2013-04-21 23:41:00,
2013-04-21 16:46:00,55.5,23.8,30.26,SSE,163,0.0,2.0,29,0.00,,OVC065,0.00,VWS V13.01,2013-04-21 23:46:00,
2013-04-21 16:51:00,55.5,34.0,30.26,SSE,157,0.0,2.0,44,0.00,,OVC060,0.00,VWS V13.01,2013-04-21 23:51:00,
2013-04-21 16:56:00,55.7,31.1,30.26,SSE,157,0.0,2.0,39,0.00,,OVC060,0.00,VWS V13.01,2013-04-21 23:56:00,
2013-04-21 17:01:00,55.8,36.4,30.26,SE,144,1.0,3.0,48,0.00,,OVC060,0.00,VWS V13.01,2013-04-22 00:01:00,
2013-04-21 17:06:00,55.8,39.4,30.26,South,188,0.0,3.0,54,0.00,,OVC060,0.00,VWS V13.01,2013-04-22 00:06:00,
2013-04-21 17:11:00,55.9,40.9,30.26,SSE,157,1.0,3.0,57,0.00,,OVC060,0.00,VWS V13.01,2013-04-22 00:11:00,
2013-04-21 17:16:00,55.8,42.1,30.26,East,89,0.0,6.0,60,0.00,,OVC060,0.00,VWS V13.01,2013-04-22 00:16:00,
2013-04-21 17:22:00,55.8,40.4,30.26,SE,128,2.0,6.0,56,0.00,,OVC034,0.00,VWS V13.01,2013-04-22 00:22:00,
2013-04-21 17:27:00,55.8,39.9,30.26,ESE,115,3.0,6.0,55,0.00,,OVC034,0.00,VWS V13.01,2013-04-22 00:27:00,
2013-04-21 17:32:00,55.8,41.7,30.26,SE,125,2.0,4.0,59,0.00,,OVC034,0.00,VWS V13.01,2013-04-22 00:32:00,
2013-04-21 17:37:00,55.6,41.5,30.26,SE,134,4.0,6.0,59,0.00,,OVC034,0.00,VWS V13.01,2013-04-22 00:37:00,
2013-04-21 17:42:00,55.5,38.7,30.26,SE,146,2.0,6.0,53,0.00,,OVC034,0.00,VWS V13.01,2013-04-22 00:42:00,
2013-04-21 17:47:00,55.5,41.9,30.26,SSE,149,3.0,4.0,60,0.00,,OVC034,0.00,VWS V13.01,2013-04-22 00:47:00,
2013-04-21 17:52:00,55.5,40.5,30.25,SE,134,2.0,4.0,57,0.00,,OVC034,0.00,VWS V13.01,2013-04-22 00:52:00,
2013-04-21 17:57:00,55.5,41.9,30.25,SE,126,2.0,4.0,60,0.00,,OVC034,0.00,VWS V13.01,2013-04-22 00:57:00,
2013-04-21 18:02:00,55.4,41.8,30.26,SE,145,0.0,4.0,60,0.00,,OVC034,0.00,VWS V13.01,2013-04-22 01:02:00,
2013-04-21 18:07:00,55.4,41.8,30.26,South,182,2.0,4.0,60,0.00,,OVC034,0.00,VWS V13.01,2013-04-22 01:07:00,
2013-04-21 18:12:00,55.4,38.6,30.25,SSE,161,0.0,4.0,53,0.00,,OVC034,0.00,VWS V13.01,2013-04-22 01:12:00,
2013-04-21 18:17:00,55.5,39.1,30.25,SSE,161,0.0,0.0,54,0.00,,OVC034,0.00,VWS V13.01,2013-04-22 01:17:00,
2013-04-21 18:23:00,55.5,34.5,30.25,SSE,161,0.0,0.0,45,0.00,,OVC034,0.00,VWS V13.01,2013-04-22 01:23:00,
2013-04-21 18:28:00,55.5,36.7,30.25,NE,51,1.0,3.0,49,0.00,,OVC034,0.00,VWS V13.01,2013-04-22 01:28:00,
2013-04-21 18:33:00,55.4,36.6,30.25,NNE,33,2.0,4.0,49,0.00,,OVC034,0.00,VWS V13.01,2013-04-22 01:33:00,
2013-04-21 18:38:00,55.2,38.4,30.25,NE,38,3.0,5.0,53,0.00,,OVC034,0.00,VWS V13.01,2013-04-22 01:38:00,
2013-04-21 18:43:00,55.0,37.2,30.25,NE,36,2.0,5.0,51,0.00,,OVC034,0.00,VWS V13.01,2013-04-22 01:43:00,
2013-04-21 18:48:00,54.9,36.1,30.26,NE,45,4.0,5.0,49,0.00,,OVC034,0.00,VWS V13.01,2013-04-22 01:48:00,
2013-04-21 18:53:00,54.8,36.0,30.26,NE,43,3.0,5.0,49,0.00,,OVC032,0.00,VWS V13.01,2013-04-22 01:53:00,
2013-04-21 18:58:00,54.7,36.9,30.26,ENE,57,4.0,5.0,51,0.00,,OVC032,0.00,VWS V13.01,2013-04-22 01:58:00,
2013-04-21 19:03:00,54.7,34.9,30.26,East,80,6.0,6.0,47,0.00,,OVC032,0.00,VWS V13.01,2013-04-22 02:03:00,
2013-04-21 19:08:00,54.7,35.4,30.26,ENE,59,2.0,7.0,48,0.00,,OVC032,0.00,VWS V13.01,2013-04-22 02:08:00,
2013-04-21 19:13:00,54.5,35.8,30.25,NE,51,2.0,7.0,49,0.00,,OVC032,0.00,VWS V13.01,2013-04-22 02:13:00,
2013-04-21 19:19:00,54.5,32.5,30.25,ENE,63,4.0,4.0,43,0.00,,OVC032,0.00,VWS V13.01,2013-04-22 02:19:00,
2013-04-21 19:24:00,54.3,33.4,30.26,NE,51,0.0,5.0,45,0.00,,OVC032,0.00,VWS V13.01,2013-04-22 02:24:00,
2013-04-21 19:29:00,54.2,31.6,30.26,NE,51,3.0,5.0,42,0.00,,OVC032,0.00,VWS V13.01,2013-04-22 02:29:00,
2013-04-21 19:34:00,54.1,31.5,30.26,NE,45,3.0,5.0,42,0.00,,OVC032,0.00,VWS V13.01,2013-04-22 02:34:00,
2013-04-21 19:39:00,53.8,30.1,30.26,ENE,59,0.0,6.0,40,0.00,,OVC032,0.00,VWS V13.01,2013-04-22 02:39:00,
2013-04-21 19:44:00,53.5,32.1,30.26,NE,50,6.0,6.0,44,0.00,,OVC032,0.00,VWS V13.01,2013-04-22 02:44:00,
2013-04-21 19:49:00,53.2,28.3,30.26,NE,50,6.0,8.0,38,0.00,,OVC032,0.00,VWS V13.01,2013-04-22 02:49:00,
2013-04-21 19:54:00,53.0,27.4,30.26,NE,53,5.0,9.0,37,0.00,,OVC032,0.00,VWS V13.01,2013-04-22 02:54:00,
2013-04-21 19:59:00,52.7,24.4,30.26,NE,53,3.0,3.0,33,0.00,,OVC032,0.00,VWS V13.01,2013-04-22 02:59:00,
2013-04-21 20:04:00,52.6,20.4,30.26,NE,36,4.0,5.0,28,0.00,,OVC032,0.00,VWS V13.01,2013-04-22 03:04:00,
2013-04-21 20:09:00,52.3,21.0,30.26,NE,45,2.0,6.0,29,0.00,,OVC032,0.00,VWS V13.01,2013-04-22 03:09:00,
2013-04-21 20:15:00,52.1,21.6,30.26,ENE,71,6.0,7.0,30,0.00,,OVC032,0.00,VWS V13.01,2013-04-22 03:15:00,
2013-04-21 20:20:00,51.8,19.8,30.27,NE,49,6.0,7.0,28,0.00,,OVC032,0.00,VWS V13.01,2013-04-22 03:20:00,
2013-04-21 20:25:00,51.6,17.0,30.27,NE,38,6.0,7.0,25,0.00,,OVC032,0.00,VWS V13.01,2013-04-22 03:25:00,
2013-04-21 20:30:00,51.5,17.8,30.28,NNE,24,3.0,9.0,26,0.00,,OVC032,0.00,VWS V13.01,2013-04-22 03:30:00,
2013-04-21 20:35:00,51.3,16.7,30.27,NE,46,3.0,9.0,25,0.00,,OVC032,0.00,VWS V13.01,2013-04-22 03:35:00,
2013-04-21 20:40:00,51.2,15.7,30.27,NNE,19,3.0,9.0,24,0.00,,OVC032,0.00,VWS V13.01,2013-04-22 03:40:00,
2013-04-21 20:45:00,51.1,17.4,30.27,ENE,63,2.0,5.0,26,0.00,,OVC032,0.00,VWS V13.01,2013-04-22 03:45:00,
2013-04-21 20:50:00,51.0,19.1,30.28,NE,45,6.0,6.0,28,0.00,,OVC022,0.00,VWS V13.01,2013-04-22 03:50:00,
2013-04-21 20:55:00,50.8,19.7,30.28,ENE,61,4.0,9.0,29,0.00,,OVC022,0.00,VWS V13.01,2013-04-22 03:55:00,
2013-04-21 21:01:00,50.7,19.6,30.28,ENE,61,3.0,6.0,29,0.00,,OVC022,0.00,VWS V13.01,2013-04-22 04:01:00,
2013-04-21 21:02:00,50.7,18.8,30.28,East,98,4.0,6.0,28,0.00,,OVC022,0.00,VWS V13.01,2013-04-22 04:02:00,
2013-04-21 21:07:00,50.6,17.0,30.28,East,81,3.0,6.0,26,0.00,,OVC022,0.00,VWS V13.01,2013-04-22 04:07:00,
2013-04-21 21:12:00,50.6,17.0,30.28,ENE,72,1.0,6.0,26,0.00,,OVC022,0.00,VWS V13.01,2013-04-22 04:12:00,
2013-04-21 21:17:00,50.6,17.0,30.28,ENE,72,1.0,2.0,26,0.00,,OVC022,0.00,VWS V13.01,2013-04-22 04:17:00,
2013-04-21 21:22:00,50.5,14.1,30.28,ENE,72,0.0,2.0,23,0.00,,OVC022,0.00,VWS V13.01,2013-04-22 04:22:00,
2013-04-21 21:27:00,50.6,6.1,30.29,ENE,72,0.0,2.0,16,0.00,,OVC022,0.00,VWS V13.01,2013-04-22 04:27:00,
2013-04-21 21:32:00,50.6,8.7,30.29,NE,54,0.0,2.0,18,0.00,,OVC022,0.00,VWS V13.01,2013-04-22 04:32:00,
2013-04-21 21:37:00,50.6,-0.1,30.29,NE,54,0.0,2.0,12,0.00,,OVC022,0.00,VWS V13.01,2013-04-22 04:37:00,
2013-04-21 21:42:00,50.5,10.9,30.29,NE,54,0.0,3.0,20,0.00,,OVC022,0.00,VWS V13.01,2013-04-22 04:42:00,
2013-04-21 21:48:00,50.5,14.1,30.29,NE,49,1.0,4.0,23,0.00,,OVC022,0.00,VWS V13.01,2013-04-22 04:48:00,
2013-04-21 21:52:00,50.6,4.7,30.29,NE,49,0.0,4.0,15,0.00,,OVC021,0.00,VWS V13.01,2013-04-22 04:52:00,
2013-04-21 21:58:00,50.5,13.1,30.29,NE,51,2.0,4.0,22,0.00,,OVC021,0.00,VWS V13.01,2013-04-22 04:58:00,
2013-04-21 22:03:00,50.5,7.3,30.29,NNE,27,0.0,4.0,17,0.00,,OVC021,0.00,VWS V13.01,2013-04-22 05:03:00,
2013-04-21 22:08:00,50.5,14.1,30.30,NNE,27,0.0,4.0,23,0.00,,OVC021,0.00,VWS V13.01,2013-04-22 05:08:00,
2013-04-21 22:13:00,50.4,17.7,30.30,NE,41,2.0,4.0,27,0.00,,OVC021,0.00,VWS V13.01,2013-04-22 05:13:00,
2013-04-21 22:18:00,50.4,15.9,30.30,NE,49,0.0,3.0,25,0.00,,OVC021,0.00,VWS V13.01,2013-04-22 05:18:00,
2013-04-21 22:23:00,50.4,16.8,30.30,SE,130,1.0,3.0,26,0.00,,OVC021,0.00,VWS V13.01,2013-04-22 05:23:00,
2013-04-21 22:28:00,50.4,21.7,30.30,NE,52,3.0,7.0,32,0.00,,OVC021,0.00,VWS V13.01,2013-04-22 05:28:00,
2013-04-21 22:33:00,50.4,23.8,30.30,ENE,57,1.0,4.0,35,0.00,,OVC021,0.00,VWS V13.01,2013-04-22 05:33:00,
2013-04-21 22:38:00,50.5,16.0,30.30,NE,42,1.0,4.0,25,0.00,,OVC021,0.00,VWS V13.01,2013-04-22 05:38:00,
2013-04-21 22:43:00,50.5,15.1,30.31,NE,42,0.0,4.0,24,0.00,,OVC021,0.00,VWS V13.01,2013-04-22 05:43:00,
2013-04-21 22:48:00,50.5,8.6,30.31,NE,42,0.0,1.0,18,0.00,,OVC021,0.00,VWS V13.01,2013-04-22 05:48:00,
2013-04-21 22:53:00,50.6,-2.0,30.31,NE,42,0.0,1.0,11,0.00,,OVC021,0.00,VWS V13.01,2013-04-22 05:53:00,
2013-04-21 22:59:00,50.5,6.0,30.30,NE,42,0.0,1.0,16,0.00,,OVC021,0.00,VWS V13.01,2013-04-22 05:59:00,
2013-04-21 23:04:00,50.5,-4.0,30.30,NE,42,0.0,0.0,10,0.00,,OVC021,0.00,VWS V13.01,2013-04-22 06:04:00,
2013-04-21 23:09:00,50.5,-4.0,30.30,NE,42,0.0,0.0,10,0.00,,OVC021,0.00,VWS V13.01,2013-04-22 06:09:00,
2013-04-21 23:14:00,50.4,5.9,30.30,NE,42,0.0,0.0,16,0.00,,OVC021,0.00,VWS V13.01,2013-04-22 06:14:00,
2013-04-21 23:19:00,50.3,-8.8,30.30,NE,42,0.0,0.0,8,0.00,,OVC021,0.00,VWS V13.01,2013-04-22 06:19:00,
2013-04-21 23:24:00,50.3,-14.6,30.30,NE,42,0.0,1.0,6,0.00,,OVC021,0.00,VWS V13.01,2013-04-22 06:24:00,
2013-04-21 23:29:00,50.4,0.0,30.30,NE,42,0.0,0.0,0,0.00,,OVC021,0.00,VWS V13.01,2013-04-22 06:29:00,
2013-04-21 23:34:00,50.3,-22.4,30.30,NE,42,0.0,2.0,4,0.00,,OVC021,0.00,VWS V13.01,2013-04-22 06:34:00,
2013-04-21 23:39:00,50.3,-18.1,30.31,NE,42,0.0,2.0,5,0.00,,OVC021,0.00,VWS V13.01,2013-04-22 06:39:00,
2013-04-21 23:44:00,50.2,-6.4,30.30,NE,42,0.0,0.0,9,0.00,,OVC021,0.00,VWS V13.01,2013-04-22 06:44:00,
2013-04-21 23:49:00,50.2,-47.0,30.30,NE,42,0.0,0.0,1,0.00,,OVC025,0.00,VWS V13.01,2013-04-22 06:49:00,
2013-04-21 23:54:00,50.2,-11.6,30.30,NE,42,0.0,1.0,7,0.00,,OVC025,0.00,VWS V13.01,2013-04-22 06:54:00,
2013-04-21 23:59:00,50.1,-8.9,30.31,NE,42,0.0,0.0,8,0.00,,OVC025,0.00,VWS V13.01,2013-04-22 06:59:00,